Monford, Kentucky
Current Conditions -  °F | °C
As of 11:53 AM on Sunday 21 Dec 2014 (Local Time) from KBWG Reporting Station
Clear Clear  
Wind Chill: 44°   Ceiling: Unl
Heat Index: 47°   Visibility: 10mi
Dew Point: 28°   Wind: 7mph
Humidity: 48%   Direction: 60°ENE
Pressure: 30.21"   Gusts: NA
Location:  37.2015°N, 86.4449°W
Report Text: KBWG 211753Z AUTO 06006KT 10SM CLR 08/M02 A3021 RMK AO2 SLP233 I6001 T00831022 10083 21056 58021
Loading
Personal Weather Stations






























Interactive Weather Map New forecast layout! Learn more

10-Day Weather Forecast

Advertisements
Track Severe Weather on mobile